Terminal Aerodrome Forecast
Issued by NWS

Home | Current Version | Previous Version | Text Only | Print | Product List | Glossary On
Versions: 1 2 3 4 5 6 7 8 9 10 11 12 13 14 15 16 17
000
FTPA31 PHFO 072328
TAFHKO
TAF
PHKO 072328Z 0800/0824 21009KT P6SM SCT050 BKN200
     FM080200 19007KT P6SM VCSH SCT030 BKN050
     FM081000 10004KT P6SM BKN150
     FM082100 24009KT P6SM VCSH SCT020 BKN050=

USA.gov is the U.S. government's official web portal to all federal, state and local government web resources and services.